createdAt,value
2023-03-21T00:04:26.023Z,11.05
2023-03-21T00:09:28.393Z,11.01
2023-03-21T00:14:31.074Z,11.00
2023-03-21T00:19:33.095Z,11.03
2023-03-21T00:24:36.085Z,11.05
2023-03-21T00:29:38.030Z,11.10
2023-03-21T00:34:43.278Z,11.26
2023-03-21T00:39:50.956Z,11.43
2023-03-21T00:44:53.985Z,11.45
2023-03-21T00:49:56.117Z,11.40
2023-03-21T00:54:58.113Z,11.38
2023-03-21T00:59:59.909Z,11.36
2023-03-21T01:05:01.870Z,11.23
2023-03-21T01:10:04.209Z,11.06
2023-03-21T01:15:07.289Z,11.00
2023-03-21T01:20:10.892Z,11.11
2023-03-21T01:25:22.458Z,11.23
2023-03-21T01:30:28.691Z,11.26
2023-03-21T01:35:41.023Z,11.26
2023-03-21T01:40:51.422Z,11.30
2023-03-21T01:46:25.486Z,11.30
2023-03-21T01:51:44.205Z,11.33
2023-03-21T01:56:48.003Z,11.22
2023-03-21T02:01:52.747Z,11.05
2023-03-21T02:07:13.890Z,10.92
2023-03-21T02:12:21.139Z,10.94
2023-03-21T02:17:46.577Z,10.79
2023-03-21T02:23:02.932Z,10.79
2023-03-21T02:28:23.007Z,10.72
2023-03-21T02:33:56.086Z,10.74
2023-03-21T02:39:14.182Z,10.55
2023-03-21T02:44:44.453Z,10.44
2023-03-21T02:49:49.699Z,10.44
2023-03-21T02:54:52.383Z,10.37
2023-03-21T03:00:10.697Z,10.31
2023-03-21T03:05:21.878Z,10.33
2023-03-21T03:10:43.880Z,10.26
2023-03-21T03:16:10.225Z,10.20
2023-03-21T03:21:19.787Z,10.26
2023-03-21T03:26:34.873Z,10.39
2023-03-21T03:31:41.833Z,10.46
2023-03-21T03:36:47.802Z,10.53
2023-03-21T03:42:28.088Z,10.54
2023-03-21T03:47:56.416Z,10.47
2023-03-21T03:53:25.191Z,10.45
2023-03-21T03:58:44.525Z,10.43
2023-03-21T04:03:54.587Z,10.31
2023-03-21T04:09:00.139Z,10.30
2023-03-21T04:14:05.056Z,10.35
2023-03-21T04:19:09.707Z,10.38
2023-03-21T04:24:13.896Z,10.40
2023-03-21T04:29:18.040Z,10.34
2023-03-21T04:34:40.341Z,10.31
2023-03-21T04:39:43.055Z,10.26
2023-03-21T04:44:46.379Z,10.18
2023-03-21T04:49:48.259Z,10.06
2023-03-21T04:54:50.155Z,9.96
2023-03-21T04:59:53.422Z,9.92
2023-03-21T05:04:57.570Z,9.96
2023-03-21T05:10:01.329Z,9.97
2023-03-21T05:15:05.722Z,9.93
2023-03-21T05:20:09.824Z,9.82
2023-03-21T05:25:13.254Z,9.72
2023-03-21T05:30:36.943Z,9.80
2023-03-21T05:35:40.283Z,9.95
2023-03-21T05:40:49.961Z,10.02
2023-03-21T05:45:53.003Z,9.94
2023-03-21T05:50:55.910Z,9.74
2023-03-21T05:55:58.758Z,9.76
2023-03-21T06:01:16.409Z,9.71
2023-03-21T06:06:25.858Z,9.66
2023-03-21T06:11:36.855Z,9.71
2023-03-21T06:17:02.250Z,9.85
2023-03-21T06:22:06.116Z,9.86
2023-03-21T06:27:10.547Z,9.76
2023-03-21T06:32:32.582Z,9.74
2023-03-21T06:37:43.534Z,9.80
2023-03-21T06:42:45.897Z,9.77
2023-03-21T06:47:49.858Z,9.83
2023-03-21T06:53:11.908Z,9.93
2023-03-21T06:58:34.066Z,10.04
2023-03-21T07:03:37.870Z,10.05
2023-03-21T07:08:41.533Z,10.09
2023-03-21T07:13:43.913Z,10.24
2023-03-21T07:18:46.679Z,10.26
2023-03-21T07:23:50.740Z,10.23
2023-03-21T07:28:52.576Z,10.26
2023-03-21T07:33:54.387Z,10.17
2023-03-21T07:38:57.578Z,10.24
2023-03-21T07:43:59.500Z,10.25
2023-03-21T07:49:09.019Z,10.34
2023-03-21T07:54:10.916Z,10.35
2023-03-21T07:59:12.673Z,10.43
2023-03-21T08:04:14.754Z,10.57
2023-03-21T08:09:16.712Z,10.70
2023-03-21T08:14:18.542Z,10.79
2023-03-21T08:19:21.872Z,10.82
2023-03-21T08:24:24.138Z,10.87
2023-03-21T08:29:26.198Z,11.18
2023-03-21T08:34:28.006Z,11.39
2023-03-21T08:39:29.854Z,11.51
2023-03-21T08:44:31.626Z,11.54
2023-03-21T08:49:34.819Z,11.66
2023-03-21T08:54:36.634Z,11.74
2023-03-21T08:59:38.758Z,11.71
2023-03-21T09:04:41.192Z,11.74
2023-03-21T09:09:43.696Z,11.82
2023-03-21T09:14:45.594Z,12.10
2023-03-21T09:19:47.423Z,12.34
2023-03-21T09:24:50.303Z,12.56
2023-03-21T09:29:52.715Z,12.78
2023-03-21T09:34:55.673Z,13.01
2023-03-21T09:39:58.371Z,13.06
2023-03-21T09:45:10.789Z,13.02
2023-03-21T09:50:32.069Z,13.21
2023-03-21T09:55:36.653Z,13.41
2023-03-21T10:00:43.353Z,13.65
2023-03-21T10:05:46.963Z,13.76
2023-03-21T10:10:52.016Z,13.78
2023-03-21T10:16:21.422Z,13.79
2023-03-21T10:21:56.645Z,13.91
2023-03-21T10:26:50.596Z,13.86
2023-03-21T10:31:53.638Z,13.77
2023-03-21T10:36:55.445Z,13.73
2023-03-21T10:41:57.271Z,13.77
2023-03-21T10:47:07.970Z,14.20
2023-03-21T10:52:12.693Z,14.36
2023-03-21T10:57:22.332Z,14.50
2023-03-21T11:02:37.179Z,14.75
2023-03-21T11:07:39.185Z,14.97
2023-03-21T11:12:46.651Z,15.26
2023-03-21T11:17:48.464Z,15.48
2023-03-21T11:22:55.400Z,15.68
2023-03-21T11:27:57.404Z,15.68
2023-03-21T11:33:03.743Z,15.28
2023-03-21T11:38:23.525Z,15.27
2023-03-21T11:43:27.094Z,15.37
2023-03-21T11:48:29.830Z,15.48
2023-03-21T11:53:46.712Z,15.54
2023-03-21T11:59:06.995Z,15.59
2023-03-21T12:04:15.248Z,15.69
2023-03-21T12:09:42.033Z,15.84
2023-03-21T12:15:14.467Z,15.93
2023-03-21T12:20:40.355Z,15.94
2023-03-21T12:25:54.892Z,15.96
2023-03-21T12:31:29.905Z,15.70
2023-03-21T12:37:09.227Z,15.45
2023-03-21T12:42:13.753Z,15.43
2023-03-21T12:47:24.421Z,15.89
2023-03-21T12:52:34.127Z,16.10
2023-03-21T12:57:51.144Z,16.31
2023-03-21T13:03:46.601Z,16.35
2023-03-21T13:08:58.797Z,16.03
2023-03-21T13:14:25.425Z,16.06
2023-03-21T13:19:44.815Z,16.09
2023-03-21T13:24:48.821Z,16.42
2023-03-21T13:29:53.784Z,16.54
2023-03-21T13:34:58.179Z,16.64
2023-03-21T13:40:19.566Z,16.72
2023-03-21T13:45:29.804Z,16.75
2023-03-21T13:50:52.201Z,16.77
2023-03-21T13:56:11.964Z,16.84
2023-03-21T14:01:28.226Z,16.93
2023-03-21T14:06:55.096Z,17.00
2023-03-21T14:12:03.866Z,17.01
2023-03-21T14:17:22.916Z,17.02
2023-03-21T14:22:24.796Z,17.05
2023-03-21T14:27:30.954Z,16.99
2023-03-21T14:32:32.879Z,16.93
2023-03-21T14:37:41.673Z,16.99
2023-03-21T14:42:48.115Z,16.99
2023-03-21T14:48:12.756Z,17.00
2023-03-21T14:53:20.094Z,16.91
2023-03-21T14:58:21.969Z,16.77
2023-03-21T15:03:26.986Z,16.73
2023-03-21T15:08:29.299Z,16.67
2023-03-21T15:13:46.122Z,16.67
2023-03-21T15:18:48.501Z,16.52
2023-03-21T15:23:55.896Z,16.52
2023-03-21T15:28:59.576Z,16.50
2023-03-21T15:34:01.923Z,16.34
2023-03-21T15:39:08.957Z,16.36
2023-03-21T15:44:15.172Z,16.39
2023-03-21T15:49:16.961Z,16.39
2023-03-21T15:54:26.561Z,16.40
2023-03-21T15:59:33.173Z,16.39
2023-03-21T16:05:14.767Z,16.40
2023-03-21T16:10:27.368Z,16.32
2023-03-21T16:15:29.914Z,16.26
2023-03-21T16:20:37.987Z,16.26
2023-03-21T16:25:41.045Z,16.25
2023-03-21T16:30:43.206Z,16.27
2023-03-21T16:35:45.133Z,16.29
2023-03-21T16:40:47.111Z,16.29
2023-03-21T16:45:49.031Z,16.29
2023-03-21T16:50:50.926Z,16.26
2023-03-21T16:55:54.099Z,16.23
2023-03-21T17:00:56.335Z,16.18
2023-03-21T17:05:58.149Z,16.08
2023-03-21T17:11:00.116Z,16.01
2023-03-21T17:16:02.059Z,15.98
2023-03-21T17:21:12.319Z,15.95
2023-03-21T17:26:18.392Z,15.88
2023-03-21T17:31:23.949Z,15.84
2023-03-21T17:36:32.205Z,15.74
2023-03-21T17:41:34.129Z,15.69
2023-03-21T17:46:37.355Z,15.69
2023-03-21T17:51:39.737Z,15.64
2023-03-21T17:56:42.241Z,15.70
2023-03-21T18:01:44.123Z,15.68
2023-03-21T18:06:46.088Z,15.64
2023-03-21T18:11:47.980Z,15.53
2023-03-21T18:16:50.746Z,15.50
2023-03-21T18:21:52.573Z,15.48
2023-03-21T18:26:54.587Z,15.47
2023-03-21T18:32:06.975Z,15.47
2023-03-21T18:37:13.138Z,15.42
2023-03-21T18:42:19.133Z,15.39
2023-03-21T18:47:22.552Z,15.36
2023-03-21T18:52:26.413Z,15.32
2023-03-21T18:57:36.459Z,15.27
2023-03-21T19:02:47.123Z,15.18
2023-03-21T19:07:49.846Z,15.06
2023-03-21T19:12:54.689Z,14.96
2023-03-21T19:18:30.630Z,14.89
2023-03-21T19:23:18.840Z,14.93
2023-03-21T19:28:20.958Z,14.96
2023-03-21T19:33:24.526Z,15.07
2023-03-21T19:38:26.524Z,15.07
2023-03-21T19:43:33.049Z,15.01
2023-03-21T19:48:38.112Z,14.97
2023-03-21T19:53:40.546Z,14.90
2023-03-21T19:58:42.591Z,14.83
2023-03-21T20:03:44.687Z,14.83
2023-03-21T20:14:09.218Z,14.82
2023-03-21T20:19:13.472Z,14.81
2023-03-21T20:24:16.936Z,14.83
2023-03-21T20:34:40.680Z,14.79
2023-03-21T20:39:42.752Z,14.75
2023-03-21T20:44:57.730Z,14.77
2023-03-21T20:50:00.422Z,14.76
2023-03-21T20:55:03.078Z,14.77
2023-03-21T21:00:13.617Z,14.67
2023-03-21T21:05:28.728Z,14.64
2023-03-21T21:10:33.565Z,14.63
2023-03-21T21:15:37.507Z,14.58
2023-03-21T21:20:40.315Z,14.51
2023-03-21T21:25:42.221Z,14.47
2023-03-21T21:30:44.050Z,14.51
2023-03-21T21:35:48.088Z,14.51
2023-03-21T21:40:52.094Z,14.50
2023-03-21T21:45:54.058Z,14.50
2023-03-21T21:50:55.888Z,14.51
2023-03-21T21:55:57.726Z,14.56
2023-03-21T22:01:01.942Z,14.53
2023-03-21T22:06:07.365Z,14.44
2023-03-21T22:11:09.104Z,14.40
2023-03-21T22:16:12.131Z,14.34
2023-03-21T22:21:14.016Z,14.19
2023-03-21T22:26:15.861Z,13.90
2023-03-21T22:31:17.970Z,13.70
2023-03-21T22:36:20.336Z,13.51
2023-03-21T22:41:22.151Z,13.41
2023-03-21T22:46:24.035Z,13.30
2023-03-21T22:51:26.024Z,13.23
2023-03-21T22:56:27.818Z,13.20
2023-03-21T23:01:29.693Z,13.14
2023-03-21T23:06:31.905Z,13.20
2023-03-21T23:11:33.908Z,13.20
2023-03-21T23:16:38.638Z,13.20
2023-03-21T23:21:40.615Z,13.29
2023-03-21T23:26:42.788Z,13.36
2023-03-21T23:31:44.657Z,13.38
2023-03-21T23:36:46.502Z,13.36
2023-03-21T23:41:48.259Z,13.43
2023-03-21T23:46:50.057Z,13.34
2023-03-21T23:51:51.975Z,13.40
2023-03-21T23:56:53.733Z,13.48
